Terminal Aerodrome Forecast
Issued by NWS

Home | Current Version | Previous Version | Graphics & Text | Print | Product List | Glossary On
Versions: 1 2 3 4 5 6 7 8 9 10 11 12 13 14 15 16 17 18 19
000
FTUS43 KBIS 190820 AAB
TAFDIK
TAF AMD
KDIK 190820Z 1908/2006 07007KT P6SM VCFG SCT003 OVC110
      TEMPO 1908/1912 4SM BR
     FM191200 14004KT P6SM BKN200
     FM191700 16007KT P6SM SCT250
     FM200300 22005KT P6SM BKN150=

USA.gov is the U.S. government's official web portal to all federal, state and local government web resources and services.